sensor_id;sensor_type;location;lat;lon;timestamp;pressure;altitude;pressure_sealevel;temperature;humidity
6425;BME280;12193;42.642;23.384;2024-02-21T00:02:10;95049.69;;;5.58;100.00
6425;BME280;12193;42.642;23.384;2024-02-21T00:04:39;95053.91;;;5.59;100.00
6425;BME280;12193;42.642;23.384;2024-02-21T00:07:08;95051.84;;;5.71;100.00
6425;BME280;12193;42.642;23.384;2024-02-21T00:09:38;95048.56;;;5.61;100.00
6425;BME280;12193;42.642;23.384;2024-02-21T00:12:07;95041.34;;;5.64;100.00
6425;BME280;12193;42.642;23.384;2024-02-21T00:14:37;95046.19;;;5.67;100.00
6425;BME280;12193;42.642;23.384;2024-02-21T00:17:06;95049.75;;;5.66;100.00
6425;BME280;12193;42.642;23.384;2024-02-21T00:19:39;95041.50;;;5.63;100.00
6425;BME280;12193;42.642;23.384;2024-02-21T00:22:08;95045.53;;;5.73;100.00
6425;BME280;12193;42.642;23.384;2024-02-21T00:24:37;95042.47;;;5.70;100.00
6425;BME280;12193;42.642;23.384;2024-02-21T00:27:06;95046.69;;;5.71;100.00
6425;BME280;12193;42.642;23.384;2024-02-21T00:29:36;95043.28;;;5.62;100.00
6425;BME280;12193;42.642;23.384;2024-02-21T00:32:06;95043.41;;;5.61;100.00
6425;BME280;12193;42.642;23.384;2024-02-21T00:34:35;95037.78;;;5.57;100.00
6425;BME280;12193;42.642;23.384;2024-02-21T00:37:07;95041.50;;;5.63;100.00
6425;BME280;12193;42.642;23.384;2024-02-21T00:39:36;95034.09;;;5.68;100.00
6425;BME280;12193;42.642;23.384;2024-02-21T00:42:06;95042.78;;;5.59;100.00
6425;BME280;12193;42.642;23.384;2024-02-21T00:44:35;95031.19;;;5.63;100.00
6425;BME280;12193;42.642;23.384;2024-02-21T00:47:05;95030.38;;;5.62;100.00
6425;BME280;12193;42.642;23.384;2024-02-21T00:49:34;95035.53;;;5.62;100.00
6425;BME280;12193;42.642;23.384;2024-02-21T00:52:06;95033.75;;;5.55;100.00
6425;BME280;12193;42.642;23.384;2024-02-21T00:54:35;95033.41;;;5.50;100.00
6425;BME280;12193;42.642;23.384;2024-02-21T00:57:05;95028.22;;;5.42;100.00
6425;BME280;12193;42.642;23.384;2024-02-21T00:59:34;95030.84;;;5.50;100.00
6425;BME280;12193;42.642;23.384;2024-02-21T01:02:03;95021.44;;;5.41;100.00
6425;BME280;12193;42.642;23.384;2024-02-21T01:04:33;95024.84;;;5.41;100.00
6425;BME280;12193;42.642;23.384;2024-02-21T04:08:48;95012.88;;;5.90;100.00
6425;BME280;12193;42.642;23.384;2024-02-21T04:11:18;95002.25;;;5.93;100.00
6425;BME280;12193;42.642;23.384;2024-02-21T04:13:48;95004.03;;;5.84;100.00
6425;BME280;12193;42.642;23.384;2024-02-21T04:16:18;95009.81;;;5.86;100.00
6425;BME280;12193;42.642;23.384;2024-02-21T04:18:47;95009.81;;;5.78;100.00
6425;BME280;12193;42.642;23.384;2024-02-21T04:21:17;95000.75;;;5.66;100.00
6425;BME280;12193;42.642;23.384;2024-02-21T04:23:49;95000.41;;;5.61;100.00
6425;BME280;12193;42.642;23.384;2024-02-21T04:26:18;94996.66;;;5.48;100.00
6425;BME280;12193;42.642;23.384;2024-02-21T04:28:47;94998.28;;;5.49;100.00
6425;BME280;12193;42.642;23.384;2024-02-21T04:31:16;94999.09;;;5.49;100.00
6425;BME280;12193;42.642;23.384;2024-02-21T04:33:46;95001.03;;;5.55;100.00
6425;BME280;12193;42.642;23.384;2024-02-21T04:36:15;95000.06;;;5.48;100.00
6425;BME280;12193;42.642;23.384;2024-02-21T04:38:44;94993.75;;;5.43;100.00
6425;BME280;12193;42.642;23.384;2024-02-21T04:41:16;94994.91;;;5.48;100.00
6425;BME280;12193;42.642;23.384;2024-02-21T04:43:46;94998.13;;;5.42;100.00
6425;BME280;12193;42.642;23.384;2024-02-21T04:46:16;94999.34;;;5.30;100.00
6425;BME280;12193;42.642;23.384;2024-02-21T04:48:45;95000.97;;;5.23;100.00
6425;BME280;12193;42.642;23.384;2024-02-21T04:51:14;95002.41;;;5.26;100.00
6425;BME280;12193;42.642;23.384;2024-02-21T04:53:43;95007.44;;;5.35;100.00
6425;BME280;12193;42.642;23.384;2024-02-21T04:56:12;95005.16;;;5.24;100.00
6425;BME280;12193;42.642;23.384;2024-02-21T04:58:44;95002.31;;;5.43;100.00
6425;BME280;12193;42.642;23.384;2024-02-21T05:01:13;95011.28;;;5.31;100.00
6425;BME280;12193;42.642;23.384;2024-02-21T05:03:43;95006.13;;;5.23;100.00
6425;BME280;12193;42.642;23.384;2024-02-21T05:06:12;95001.56;;;5.17;100.00
6425;BME280;12193;42.642;23.384;2024-02-21T05:08:41;95007.56;;;5.18;100.00
6425;BME280;12193;42.642;23.384;2024-02-21T05:11:10;95011.88;;;5.10;100.00
6425;BME280;12193;42.642;23.384;2024-02-21T05:13:39;95013.44;;;5.10;100.00
6425;BME280;12193;42.642;23.384;2024-02-21T05:16:12;95010.25;;;5.16;100.00
6425;BME280;12193;42.642;23.384;2024-02-21T05:18:41;95015.41;;;5.09;100.00
6425;BME280;12193;42.642;23.384;2024-02-21T05:21:11;95017.63;;;5.04;100.00
6425;BME280;12193;42.642;23.384;2024-02-21T05:23:40;95024.34;;;4.97;100.00
6425;BME280;12193;42.642;23.384;2024-02-21T05:26:09;95025.66;;;5.01;100.00
6425;BME280;12193;42.642;23.384;2024-02-21T05:28:38;95015.59;;;5.15;100.00
6425;BME280;12193;42.642;23.384;2024-02-21T05:31:07;95022.63;;;5.05;100.00
6425;BME280;12193;42.642;23.384;2024-02-21T05:33:39;95026.03;;;5.13;100.00
6425;BME280;12193;42.642;23.384;2024-02-21T05:36:08;95033.50;;;5.32;100.00
6425;BME280;12193;42.642;23.384;2024-02-21T05:38:38;95027.63;;;5.56;100.00
6425;BME280;12193;42.642;23.384;2024-02-21T05:41:07;95022.75;;;5.45;100.00
6425;BME280;12193;42.642;23.384;2024-02-21T05:43:36;95031.00;;;5.48;100.00
6425;BME280;12193;42.642;23.384;2024-02-21T05:46:05;95029.19;;;5.33;100.00
6425;BME280;12193;42.642;23.384;2024-02-21T05:48:34;95025.47;;;5.35;100.00
6425;BME280;12193;42.642;23.384;2024-02-21T05:51:06;95028.38;;;5.40;100.00
6425;BME280;12193;42.642;23.384;2024-02-21T05:53:35;95040.00;;;5.03;100.00
6425;BME280;12193;42.642;23.384;2024-02-21T05:56:10;95039.72;;;5.14;100.00
6425;BME280;12193;42.642;23.384;2024-02-21T05:58:40;95035.25;;;5.24;100.00
6425;BME280;12193;42.642;23.384;2024-02-21T06:01:09;95037.66;;;5.17;100.00
6425;BME280;12193;42.642;23.384;2024-02-21T06:03:38;95035.88;;;5.18;100.00
6425;BME280;12193;42.642;23.384;2024-02-21T06:06:10;95044.59;;;5.17;100.00
6425;BME280;12193;42.642;23.384;2024-02-21T06:08:40;95047.56;;;5.38;100.00
6425;BME280;12193;42.642;23.384;2024-02-21T06:11:09;95050.31;;;5.52;100.00
6425;BME280;12193;42.642;23.384;2024-02-21T06:13:40;95054.19;;;5.48;100.00
6425;BME280;12193;42.642;23.384;2024-02-21T06:16:09;95056.81;;;5.23;100.00
6425;BME280;12193;42.642;23.384;2024-02-21T06:18:38;95061.13;;;5.07;100.00
6425;BME280;12193;42.642;23.384;2024-02-21T06:21:10;95060.75;;;5.02;100.00
6425;BME280;12193;42.642;23.384;2024-02-21T06:23:39;95062.31;;;4.95;100.00
6425;BME280;12193;42.642;23.384;2024-02-21T06:26:09;95073.25;;;4.89;100.00
6425;BME280;12193;42.642;23.384;2024-02-21T06:28:38;95078.13;;;5.00;100.00
6425;BME280;12193;42.642;23.384;2024-02-21T06:31:07;95078.06;;;5.17;100.00
6425;BME280;12193;42.642;23.384;2024-02-21T06:33:36;95075.63;;;5.49;100.00
6425;BME280;12193;42.642;23.384;2024-02-21T06:36:06;95079.97;;;6.06;100.00
6425;BME280;12193;42.642;23.384;2024-02-21T06:38:38;95073.88;;;6.38;100.00
6425;BME280;12193;42.642;23.384;2024-02-21T06:41:15;95078.81;;;7.04;100.00
6425;BME280;12193;42.642;23.384;2024-02-21T06:43:45;95071.94;;;6.17;100.00
6425;BME280;12193;42.642;23.384;2024-02-21T06:46:23;95077.09;;;6.24;100.00
6425;BME280;12193;42.642;23.384;2024-02-21T06:48:52;95080.97;;;6.36;100.00
6425;BME280;12193;42.642;23.384;2024-02-21T06:51:22;95088.25;;;6.49;100.00
6425;BME280;12193;42.642;23.384;2024-02-21T06:53:54;95095.81;;;6.66;100.00
6425;BME280;12193;42.642;23.384;2024-02-21T06:56:24;95091.78;;;6.72;100.00
6425;BME280;12193;42.642;23.384;2024-02-21T06:58:55;95090.47;;;6.20;100.00
6425;BME280;12193;42.642;23.384;2024-02-21T07:01:25;95091.75;;;6.32;100.00
6425;BME280;12193;42.642;23.384;2024-02-21T07:03:54;95092.13;;;6.29;100.00
6425;BME280;12193;42.642;23.384;2024-02-21T07:06:23;95081.63;;;6.38;100.00
6425;BME280;12193;42.642;23.384;2024-02-21T07:08:55;95077.09;;;6.17;100.00
6425;BME280;12193;42.642;23.384;2024-02-21T07:11:24;95092.75;;;6.23;100.00
6425;BME280;12193;42.642;23.384;2024-02-21T07:13:53;95098.06;;;6.45;100.00
6425;BME280;12193;42.642;23.384;2024-02-21T07:16:22;95093.09;;;6.52;100.00
6425;BME280;12193;42.642;23.384;2024-02-21T07:18:52;95097.09;;;6.86;100.00
6425;BME280;12193;42.642;23.384;2024-02-21T07:21:21;95090.91;;;7.11;100.00
6425;BME280;12193;42.642;23.384;2024-02-21T07:23:51;95095.69;;;7.30;100.00
6425;BME280;12193;42.642;23.384;2024-02-21T07:26:22;95093.81;;;7.08;100.00
6425;BME280;12193;42.642;23.384;2024-02-21T07:28:52;95098.50;;;7.13;100.00
6425;BME280;12193;42.642;23.384;2024-02-21T07:31:21;95097.28;;;6.69;100.00
6425;BME280;12193;42.642;23.384;2024-02-21T07:33:50;95094.22;;;6.57;100.00
6425;BME280;12193;42.642;23.384;2024-02-21T07:36:28;95096.78;;;6.73;100.00
6425;BME280;12193;42.642;23.384;2024-02-21T07:38:57;95095.41;;;7.17;100.00
6425;BME280;12193;42.642;23.384;2024-02-21T07:41:29;95097.13;;;7.40;100.00
6425;BME280;12193;42.642;23.384;2024-02-21T07:43:59;95098.22;;;7.46;100.00
6425;BME280;12193;42.642;23.384;2024-02-21T07:46:29;95095.75;;;7.60;100.00
6425;BME280;12193;42.642;23.384;2024-02-21T07:49:00;95095.59;;;7.62;100.00
6425;BME280;12193;42.642;23.384;2024-02-21T07:51:29;95084.00;;;7.80;100.00
6425;BME280;12193;42.642;23.384;2024-02-21T07:53:58;95087.22;;;7.90;100.00
6425;BME280;12193;42.642;23.384;2024-02-21T07:56:30;95082.66;;;7.92;100.00
6425;BME280;12193;42.642;23.384;2024-02-21T07:58:59;95088.63;;;8.23;100.00
6425;BME280;12193;42.642;23.384;2024-02-21T08:01:29;95091.88;;;8.25;100.00
6425;BME280;12193;42.642;23.384;2024-02-21T08:03:58;95094.00;;;8.14;100.00
6425;BME280;12193;42.642;23.384;2024-02-21T08:06:28;95095.78;;;8.43;100.00
6425;BME280;12193;42.642;23.384;2024-02-21T08:08:58;95087.38;;;8.19;100.00
6425;BME280;12193;42.642;23.384;2024-02-21T08:11:29;95084.84;;;8.33;100.00
6425;BME280;12193;42.642;23.384;2024-02-21T08:13:59;95090.47;;;8.37;100.00
6425;BME280;12193;42.642;23.384;2024-02-21T08:16:29;95091.06;;;8.47;100.00
6425;BME280;12193;42.642;23.384;2024-02-21T08:18:58;95092.50;;;8.49;100.00
6425;BME280;12193;42.642;23.384;2024-02-21T08:21:29;95095.84;;;8.35;100.00
6425;BME280;12193;42.642;23.384;2024-02-21T08:23:58;95087.22;;;8.21;100.00
6425;BME280;12193;42.642;23.384;2024-02-21T08:26:30;95079.09;;;8.24;100.00
6425;BME280;12193;42.642;23.384;2024-02-21T08:29:00;95091.47;;;8.95;100.00
6425;BME280;12193;42.642;23.384;2024-02-21T08:31:29;95083.91;;;9.37;100.00
6425;BME280;12193;42.642;23.384;2024-02-21T08:34:00;95086.84;;;9.48;97.60
6425;BME280;12193;42.642;23.384;2024-02-21T08:36:31;95090.16;;;9.71;95.39
6425;BME280;12193;42.642;23.384;2024-02-21T08:38:58;95087.44;;;9.79;94.41
6425;BME280;12193;42.642;23.384;2024-02-21T08:41:33;95084.34;;;9.55;96.60
6425;BME280;12193;42.642;23.384;2024-02-21T08:44:03;95081.38;;;9.43;95.89
6425;BME280;12193;42.642;23.384;2024-02-21T08:46:33;95083.38;;;9.27;96.19
6425;BME280;12193;42.642;23.384;2024-02-21T08:49:06;95088.00;;;9.60;95.73
6425;BME280;12193;42.642;23.384;2024-02-21T08:51:35;95073.94;;;9.69;94.10
6425;BME280;12193;42.642;23.384;2024-02-21T08:54:05;95081.94;;;10.18;91.86
6425;BME280;12193;42.642;23.384;2024-02-21T08:56:37;95083.28;;;10.14;90.95
6425;BME280;12193;42.642;23.384;2024-02-21T09:27:57;95077.06;;;10.29;86.76
6425;BME280;12193;42.642;23.384;2024-02-21T09:30:27;95078.66;;;10.51;84.01
6425;BME280;12193;42.642;23.384;2024-02-21T09:32:56;95083.91;;;10.36;82.82
6425;BME280;12193;42.642;23.384;2024-02-21T09:35:27;95081.13;;;10.80;81.77
6425;BME280;12193;42.642;23.384;2024-02-21T09:37:56;95087.19;;;10.87;81.89
6425;BME280;12193;42.642;23.384;2024-02-21T09:40:26;95085.31;;;10.81;84.17
6425;BME280;12193;42.642;23.384;2024-02-21T09:43:02;95087.13;;;10.80;83.77
6425;BME280;12193;42.642;23.384;2024-02-21T09:45:33;95080.41;;;10.92;83.16
6425;BME280;12193;42.642;23.384;2024-02-21T09:48:19;95093.53;;;11.33;80.92
6425;BME280;12193;42.642;23.384;2024-02-21T09:50:54;95089.44;;;11.85;79.85
6425;BME280;12193;42.642;23.384;2024-02-21T09:53:25;95087.81;;;11.77;78.75
6425;BME280;12193;42.642;23.384;2024-02-21T09:55:55;95087.44;;;11.80;78.32
6425;BME280;12193;42.642;23.384;2024-02-21T09:58:27;95082.41;;;11.45;79.59
6425;BME280;12193;42.642;23.384;2024-02-21T10:00:56;95080.16;;;11.42;80.58
6425;BME280;12193;42.642;23.384;2024-02-21T10:03:26;95072.38;;;11.42;81.21
6425;BME280;12193;42.642;23.384;2024-02-21T10:05:55;95083.31;;;11.58;79.04
6425;BME280;12193;42.642;23.384;2024-02-21T10:08:27;95084.56;;;11.69;77.15
6425;BME280;12193;42.642;23.384;2024-02-21T10:10:56;95077.44;;;11.23;76.56
6425;BME280;12193;42.642;23.384;2024-02-21T10:13:29;95079.25;;;10.95;77.36
6425;BME280;12193;42.642;23.384;2024-02-21T10:16:03;95069.47;;;10.97;77.28
6425;BME280;12193;42.642;23.384;2024-02-21T10:18:32;95070.97;;;11.12;76.22
6425;BME280;12193;42.642;23.384;2024-02-21T10:21:03;95065.19;;;11.17;74.74
6425;BME280;12193;42.642;23.384;2024-02-21T10:23:43;95065.78;;;10.64;76.03
6425;BME280;12193;42.642;23.384;2024-02-21T10:26:12;95055.31;;;10.57;77.25
6425;BME280;12193;42.642;23.384;2024-02-21T10:28:44;95060.19;;;10.88;76.40
6425;BME280;12193;42.642;23.384;2024-02-21T10:31:22;95044.94;;;11.12;74.59
6425;BME280;12193;42.642;23.384;2024-02-21T10:33:55;95052.63;;;10.93;75.81
6425;BME280;12193;42.642;23.384;2024-02-21T10:36:25;95040.97;;;11.16;74.11
6425;BME280;12193;42.642;23.384;2024-02-21T10:38:55;95031.41;;;10.89;75.87
6425;BME280;12193;42.642;23.384;2024-02-21T10:41:24;95034.06;;;11.36;75.03
6425;BME280;12193;42.642;23.384;2024-02-21T10:43:57;95023.03;;;11.28;75.25
6425;BME280;12193;42.642;23.384;2024-02-21T10:46:28;95025.69;;;11.74;72.72
6425;BME280;12193;42.642;23.384;2024-02-21T10:49:07;95020.44;;;12.28;68.17
6425;BME280;12193;42.642;23.384;2024-02-21T10:51:43;95025.88;;;12.39;65.12
6425;BME280;12193;42.642;23.384;2024-02-21T10:54:22;95020.66;;;12.33;65.04
6425;BME280;12193;42.642;23.384;2024-02-21T10:56:57;95013.22;;;12.30;64.42
6425;BME280;12193;42.642;23.384;2024-02-21T10:59:30;95013.84;;;12.77;63.54
6425;BME280;12193;42.642;23.384;2024-02-21T11:02:00;95010.00;;;12.41;63.00
6425;BME280;12193;42.642;23.384;2024-02-21T11:04:31;95001.19;;;12.22;64.08
6425;BME280;12193;42.642;23.384;2024-02-21T11:07:03;94997.00;;;12.60;62.47
6425;BME280;12193;42.642;23.384;2024-02-21T11:09:33;94994.53;;;12.20;61.18
6425;BME280;12193;42.642;23.384;2024-02-21T11:12:03;94994.69;;;11.86;61.67
6425;BME280;12193;42.642;23.384;2024-02-21T11:14:38;94983.34;;;13.03;58.80
6425;BME280;12193;42.642;23.384;2024-02-21T11:17:14;94983.84;;;13.44;55.13
6425;BME280;12193;42.642;23.384;2024-02-21T11:19:44;94978.41;;;14.57;53.33
6425;BME280;12193;42.642;23.384;2024-02-21T11:22:17;94984.19;;;15.51;48.81
6425;BME280;12193;42.642;23.384;2024-02-21T11:24:48;94974.00;;;15.61;46.23
6425;BME280;12193;42.642;23.384;2024-02-21T11:27:19;94974.44;;;14.18;49.19
6425;BME280;12193;42.642;23.384;2024-02-21T11:29:55;94973.00;;;13.91;51.54
6425;BME280;12193;42.642;23.384;2024-02-21T11:32:26;94971.31;;;12.96;54.75
6425;BME280;12193;42.642;23.384;2024-02-21T11:34:56;94959.44;;;12.87;54.35
6425;BME280;12193;42.642;23.384;2024-02-21T11:37:28;94966.28;;;12.43;56.09
6425;BME280;12193;42.642;23.384;2024-02-21T11:39:55;94959.91;;;13.47;52.15
6425;BME280;12193;42.642;23.384;2024-02-21T11:42:25;94955.00;;;13.20;50.93
6425;BME280;12193;42.642;23.384;2024-02-21T11:44:57;94961.88;;;12.37;53.58
6425;BME280;12193;42.642;23.384;2024-02-21T11:47:28;94951.78;;;11.82;56.66
6425;BME280;12193;42.642;23.384;2024-02-21T11:49:58;94951.09;;;11.54;57.39
6425;BME280;12193;42.642;23.384;2024-02-21T11:52:27;94945.31;;;11.58;57.23
6425;BME280;12193;42.642;23.384;2024-02-21T11:54:56;94948.66;;;11.52;57.86
6425;BME280;12193;42.642;23.384;2024-02-21T11:57:31;94938.13;;;11.27;58.59
6425;BME280;12193;42.642;23.384;2024-02-21T12:00:14;94946.28;;;11.11;61.00
6425;BME280;12193;42.642;23.384;2024-02-21T12:02:44;94938.06;;;11.07;61.91
6425;BME280;12193;42.642;23.384;2024-02-21T12:05:13;94948.75;;;10.91;62.24
6425;BME280;12193;42.642;23.384;2024-02-21T12:07:43;94943.81;;;10.62;63.47
6425;BME280;12193;42.642;23.384;2024-02-21T12:10:13;94945.25;;;10.71;62.50
6425;BME280;12193;42.642;23.384;2024-02-21T12:12:42;94930.81;;;10.62;61.27
6425;BME280;12193;42.642;23.384;2024-02-21T12:15:14;94935.38;;;10.33;62.01
6425;BME280;12193;42.642;23.384;2024-02-21T12:17:43;94923.97;;;10.28;63.49
6425;BME280;12193;42.642;23.384;2024-02-21T12:20:14;94930.53;;;10.51;63.54
6425;BME280;12193;42.642;23.384;2024-02-21T12:22:44;94921.38;;;10.28;64.30
6425;BME280;12193;42.642;23.384;2024-02-21T12:25:16;94911.63;;;10.09;64.84
6425;BME280;12193;42.642;23.384;2024-02-21T12:27:49;94918.53;;;10.02;65.58
6425;BME280;12193;42.642;23.384;2024-02-21T12:30:21;94925.25;;;9.96;66.06
6425;BME280;12193;42.642;23.384;2024-02-21T12:32:50;94925.44;;;9.95;66.80
6425;BME280;12193;42.642;23.384;2024-02-21T12:35:19;94916.88;;;10.15;67.29
6425;BME280;12193;42.642;23.384;2024-02-21T12:37:48;94920.88;;;9.97;68.56
6425;BME280;12193;42.642;23.384;2024-02-21T12:40:17;94911.22;;;10.12;69.18
6425;BME280;12193;42.642;23.384;2024-02-21T12:42:46;94914.13;;;10.02;69.85
6425;BME280;12193;42.642;23.384;2024-02-21T12:45:16;94900.81;;;9.91;70.33
6425;BME280;12193;42.642;23.384;2024-02-21T12:47:47;94909.06;;;9.94;70.00
6425;BME280;12193;42.642;23.384;2024-02-21T12:50:17;94908.81;;;9.89;69.77
6425;BME280;12193;42.642;23.384;2024-02-21T12:52:46;94908.63;;;9.91;69.42
6425;BME280;12193;42.642;23.384;2024-02-21T12:55:15;94904.13;;;9.99;70.09
6425;BME280;12193;42.642;23.384;2024-02-21T12:57:45;94905.03;;;9.71;70.40
6425;BME280;12193;42.642;23.384;2024-02-21T13:00:15;94899.31;;;9.54;70.51
6425;BME280;12193;42.642;23.384;2024-02-21T13:02:49;94900.09;;;9.76;69.43
6425;BME280;12193;42.642;23.384;2024-02-21T13:05:18;94907.50;;;9.79;68.78
6425;BME280;12193;42.642;23.384;2024-02-21T13:07:48;94897.03;;;9.87;69.16
6425;BME280;12193;42.642;23.384;2024-02-21T13:10:17;94894.91;;;9.55;69.02
6425;BME280;12193;42.642;23.384;2024-02-21T13:12:47;94896.50;;;9.56;68.87
6425;BME280;12193;42.642;23.384;2024-02-21T13:15:16;94884.72;;;9.53;68.58
6425;BME280;12193;42.642;23.384;2024-02-21T13:17:48;94891.69;;;9.74;68.20
6425;BME280;12193;42.642;23.384;2024-02-21T13:20:17;94885.13;;;9.78;68.25
6425;BME280;12193;42.642;23.384;2024-02-21T13:22:47;94887.00;;;10.05;69.10
6425;BME280;12193;42.642;23.384;2024-02-21T13:25:16;94884.22;;;10.06;72.91
6425;BME280;12193;42.642;23.384;2024-02-21T13:27:47;94878.41;;;10.04;75.51
6425;BME280;12193;42.642;23.384;2024-02-21T13:30:17;94878.22;;;10.06;76.39
6425;BME280;12193;42.642;23.384;2024-02-21T13:32:49;94876.91;;;9.95;76.88
6425;BME280;12193;42.642;23.384;2024-02-21T13:35:18;94880.63;;;9.86;77.45
6425;BME280;12193;42.642;23.384;2024-02-21T13:37:47;94870.91;;;9.95;78.38
6425;BME280;12193;42.642;23.384;2024-02-21T13:40:16;94874.75;;;9.99;78.51
6425;BME280;12193;42.642;23.384;2024-02-21T13:42:45;94875.19;;;10.02;78.92
6425;BME280;12193;42.642;23.384;2024-02-21T13:45:16;94872.97;;;9.78;80.41
6425;BME280;12193;42.642;23.384;2024-02-21T13:47:48;94875.03;;;9.62;79.31
6425;BME280;12193;42.642;23.384;2024-02-21T13:50:18;94877.25;;;9.65;79.80
6425;BME280;12193;42.642;23.384;2024-02-21T13:52:47;94877.25;;;9.86;79.51
6425;BME280;12193;42.642;23.384;2024-02-21T13:55:16;94879.69;;;9.73;79.30
6425;BME280;12193;42.642;23.384;2024-02-21T13:57:48;94881.44;;;9.66;80.25
6425;BME280;12193;42.642;23.384;2024-02-21T14:00:18;94875.81;;;9.62;78.94
6425;BME280;12193;42.642;23.384;2024-02-21T14:02:50;94871.53;;;9.76;77.04
6425;BME280;12193;42.642;23.384;2024-02-21T14:05:20;94869.78;;;9.76;77.46
6425;BME280;12193;42.642;23.384;2024-02-21T14:07:50;94875.63;;;9.64;77.62
6425;BME280;12193;42.642;23.384;2024-02-21T14:10:20;94862.78;;;9.56;78.84
6425;BME280;12193;42.642;23.384;2024-02-21T14:12:49;94867.66;;;9.65;78.97
6425;BME280;12193;42.642;23.384;2024-02-21T14:15:19;94872.16;;;9.57;80.29
6425;BME280;12193;42.642;23.384;2024-02-21T14:17:50;94866.91;;;9.50;81.59
6425;BME280;12193;42.642;23.384;2024-02-21T14:20:21;94870.56;;;9.56;82.37
6425;BME280;12193;42.642;23.384;2024-02-21T14:22:50;94867.72;;;9.51;82.05
6425;BME280;12193;42.642;23.384;2024-02-21T14:25:19;94861.91;;;9.49;82.73
6425;BME280;12193;42.642;23.384;2024-02-21T14:27:48;94864.63;;;9.41;83.77
6425;BME280;12193;42.642;23.384;2024-02-21T14:30:18;94857.59;;;9.35;84.31
6425;BME280;12193;42.642;23.384;2024-02-21T14:32:49;94859.25;;;9.42;83.23
6425;BME280;12193;42.642;23.384;2024-02-21T14:35:18;94863.28;;;9.45;82.95
6425;BME280;12193;42.642;23.384;2024-02-21T14:37:48;94863.38;;;9.37;83.14
6425;BME280;12193;42.642;23.384;2024-02-21T14:40:18;94852.13;;;9.30;80.91
6425;BME280;12193;42.642;23.384;2024-02-21T14:42:48;94853.06;;;9.23;80.82
6425;BME280;12193;42.642;23.384;2024-02-21T14:45:18;94864.25;;;9.23;80.44
6425;BME280;12193;42.642;23.384;2024-02-21T14:47:51;94859.50;;;9.27;78.43
6425;BME280;12193;42.642;23.384;2024-02-21T14:50:21;94841.25;;;8.99;79.00
6425;BME280;12193;42.642;23.384;2024-02-21T14:52:50;94847.41;;;8.98;79.67
6425;BME280;12193;42.642;23.384;2024-02-21T14:55:19;94854.38;;;8.98;79.73
6425;BME280;12193;42.642;23.384;2024-02-21T14:57:49;94860.16;;;9.14;79.16
6425;BME280;12193;42.642;23.384;2024-02-21T15:00:18;94859.97;;;9.16;79.28
6425;BME280;12193;42.642;23.384;2024-02-21T15:02:51;94864.03;;;9.04;79.31
6425;BME280;12193;42.642;23.384;2024-02-21T15:05:20;94862.56;;;8.80;80.59
6425;BME280;12193;42.642;23.384;2024-02-21T15:07:49;94858.44;;;8.86;80.85
6425;BME280;12193;42.642;23.384;2024-02-21T15:10:19;94861.22;;;8.84;81.89
6425;BME280;12193;42.642;23.384;2024-02-21T15:12:48;94857.72;;;8.77;82.94
6425;BME280;12193;42.642;23.384;2024-02-21T15:15:17;94860.31;;;8.77;84.08
6425;BME280;12193;42.642;23.384;2024-02-21T15:17:46;94861.22;;;8.70;84.95
6425;BME280;12193;42.642;23.384;2024-02-21T15:20:19;94866.84;;;8.59;88.19
6425;BME280;12193;42.642;23.384;2024-02-21T15:22:48;94857.38;;;8.51;90.90
6425;BME280;12193;42.642;23.384;2024-02-21T15:25:17;94859.34;;;8.49;92.34
6425;BME280;12193;42.642;23.384;2024-02-21T15:27:46;94864.38;;;8.51;92.14
6425;BME280;12193;42.642;23.384;2024-02-21T15:30:16;94870.53;;;8.50;93.43
6425;BME280;12193;42.642;23.384;2024-02-21T15:32:45;94867.75;;;8.51;93.85
6425;BME280;12193;42.642;23.384;2024-02-21T15:35:14;94871.06;;;8.45;94.48
6425;BME280;12193;42.642;23.384;2024-02-21T15:37:46;94866.50;;;8.47;94.78
6425;BME280;12193;42.642;23.384;2024-02-21T15:40:15;94867.03;;;8.57;93.98
6425;BME280;12193;42.642;23.384;2024-02-21T15:42:45;94857.94;;;8.47;94.50
6425;BME280;12193;42.642;23.384;2024-02-21T15:45:14;94867.31;;;8.48;95.30
6425;BME280;12193;42.642;23.384;2024-02-21T15:47:43;94867.59;;;8.53;96.52
6425;BME280;12193;42.642;23.384;2024-02-21T15:50:13;94859.25;;;8.43;97.75
6425;BME280;12193;42.642;23.384;2024-02-21T15:52:42;94866.50;;;8.33;99.28
6425;BME280;12193;42.642;23.384;2024-02-21T15:55:14;94870.34;;;8.51;99.59
6425;BME280;12193;42.642;23.384;2024-02-21T15:57:43;94871.56;;;8.26;100.00
6425;BME280;12193;42.642;23.384;2024-02-21T16:00:13;94878.34;;;8.27;100.00
6425;BME280;12193;42.642;23.384;2024-02-21T16:02:42;94879.53;;;8.25;99.87
6425;BME280;12193;42.642;23.384;2024-02-21T16:05:12;94874.06;;;8.20;99.89
6425;BME280;12193;42.642;23.384;2024-02-21T16:07:42;94877.28;;;8.22;99.98
6425;BME280;12193;42.642;23.384;2024-02-21T16:10:14;94880.16;;;8.27;99.14
6425;BME280;12193;42.642;23.384;2024-02-21T16:12:44;94875.97;;;8.26;99.50
6425;BME280;12193;42.642;23.384;2024-02-21T16:15:17;94882.31;;;8.24;100.00
6425;BME280;12193;42.642;23.384;2024-02-21T16:17:46;94888.34;;;8.16;100.00
6425;BME280;12193;42.642;23.384;2024-02-21T16:20:16;94892.41;;;8.11;100.00
6425;BME280;12193;42.642;23.384;2024-02-21T16:22:46;94891.88;;;8.01;100.00
6425;BME280;12193;42.642;23.384;2024-02-21T16:25:18;94893.66;;;8.00;100.00
6425;BME280;12193;42.642;23.384;2024-02-21T16:27:48;94893.75;;;7.92;100.00
6425;BME280;12193;42.642;23.384;2024-02-21T16:30:18;94898.63;;;7.87;100.00
6425;BME280;12193;42.642;23.384;2024-02-21T16:32:49;94910.06;;;7.93;100.00
6425;BME280;12193;42.642;23.384;2024-02-21T16:35:19;94906.16;;;7.97;100.00
6425;BME280;12193;42.642;23.384;2024-02-21T16:37:48;94911.31;;;7.97;100.00
6425;BME280;12193;42.642;23.384;2024-02-21T16:40:21;94917.56;;;8.02;100.00
6425;BME280;12193;42.642;23.384;2024-02-21T16:42:50;94910.88;;;7.93;100.00
6425;BME280;12193;42.642;23.384;2024-02-21T16:45:19;94916.75;;;7.87;100.00
6425;BME280;12193;42.642;23.384;2024-02-21T16:47:48;94921.47;;;7.84;100.00
6425;BME280;12193;42.642;23.384;2024-02-21T16:50:17;94925.19;;;7.81;100.00